Дата Пункты Температура Давл., мм. Влажн., % Ветер Погодные явления
Воздуха Воды Направл. Скорость
09.11.19 02:00 Одесса 15.0 13.0 759 97 Пд 2 02 ГОДИНИ
08.11.19 11:00 Одесса 15.0 13.0 759 97 Пн 0 23 ГОДИНИ
08.11.19 08:00 Одесса 14.0 13.0 759 100 С 1 20 ГОДИН
08.11.19 05:00 Одесса 14.0 13.0 759 96 С 2 17 ГОДИН
08.11.19 02:00 Одесса 14.0 13.0 758 96 Пн-С 5 14 ГОДИН
08.11.19 11:00 Одесса 15.0 13.0 758 78 Пн-С 2 11 ГОДИН
08.11.19 08:00 Одесса 12.0 13.0 758 96 Пн 0 08 ГОДИН
08.11.19 05:00 Одесса 12.0 13.0 756 96 Пн 0 05 ГОДИН
08.11.19 02:00 Одесса 14.0 13.0 755 95 З 1 02 ГОДИНИ
07.11.19 11:00 Одесса 15.0 13.0 755 91 Пн 0 23 ГОДИНИ
07.11.19 08:00 Одесса 16.0 13.0 754 87 З 3 20 ГОДИН
07.11.19 05:00 Одесса 16.0 13.0 753 94 Пд-З 2 17 ГОДИН
07.11.19 02:00 Одесса 18.0 13.0 753 86 Пд 3 14 ГОДИН
07.11.19 11:00 Одесса 16.0 13.0 753 91 Пд 2 11 ГОДИН
07.11.19 08:00 Одесса 13.0 13.0 754 89 Пн 0 08 ГОДИН
07.11.19 05:00 Одесса 12.0 13.0 753 92 Пн 0 05 ГОДИН
07.11.19 02:00 Одесса 14.0 13.0 753 85 З 1 02 ГОДИНИ
06.11.19 11:00 Одесса 17.0 13.0 752 68 З 3 23 ГОДИНИ
06.11.19 08:00 Одесса 17.0 13.0 752 79 Пд-З 3 20 ГОДИН
06.11.19 05:00 Одесса 17.0 13.0 751 81 Пд-З 3 17 ГОДИН
Количество строк
1 2 3 4 5 6 7 8 9 10
Page 5 of 553